createdAt,value
2018-07-23T00:02:37.515Z,101209.67
2018-07-23T00:07:39.639Z,101212.16
2018-07-23T00:12:42.133Z,101211.70
2018-07-23T00:17:44.303Z,101214.77
2018-07-23T00:22:46.435Z,101212.58
2018-07-23T00:27:48.601Z,101213.41
2018-07-23T00:32:50.743Z,101215.51
2018-07-23T00:37:52.901Z,101210.80
2018-07-23T00:42:55.048Z,101214.19
2018-07-23T00:47:57.179Z,101217.12
2018-07-23T00:52:59.322Z,101214.06
2018-07-23T00:58:01.529Z,101216.99
2018-07-23T01:03:07.063Z,101220.92
2018-07-23T01:08:09.205Z,101226.78
2018-07-23T01:13:11.353Z,101228.47
2018-07-23T01:18:13.514Z,101232.36
2018-07-23T01:23:15.691Z,101220.94
2018-07-23T01:28:17.828Z,101231.64
2018-07-23T01:33:19.969Z,101230.37
2018-07-23T01:38:22.156Z,101234.61
2018-07-23T01:43:24.277Z,101235.78
2018-07-23T01:48:26.419Z,101241.70
2018-07-23T01:53:28.584Z,101235.73
2018-07-23T01:58:30.788Z,101239.66
2018-07-23T02:03:32.938Z,101245.44
2018-07-23T02:08:35.063Z,101246.89
2018-07-23T02:13:37.186Z,101244.20
2018-07-23T02:18:39.323Z,101252.09
2018-07-23T02:23:41.486Z,101253.80
2018-07-23T02:28:43.603Z,101260.24
2018-07-23T02:33:45.723Z,101258.37
2018-07-23T02:38:47.874Z,101260.53
2018-07-23T02:43:50.027Z,101264.37
2018-07-23T02:48:52.179Z,101266.93
2018-07-23T02:53:54.322Z,101266.45
2018-07-23T02:58:56.479Z,101272.89
2018-07-23T03:03:58.623Z,101257.32
2018-07-23T03:09:00.772Z,101258.86
2018-07-23T03:14:02.958Z,101259.33
2018-07-23T03:19:05.114Z,101274.17
2018-07-23T03:24:07.267Z,101273.52
2018-07-23T03:29:09.488Z,101255.16
2018-07-23T03:34:11.610Z,101276.28
2018-07-23T03:39:13.708Z,101274.91
2018-07-23T03:44:15.844Z,101278.73
2018-07-23T03:49:17.994Z,101280.41
2018-07-23T03:54:20.114Z,101286.40
2018-07-23T03:59:22.316Z,101294.46
2018-07-23T04:04:24.441Z,101296.23
2018-07-23T04:09:26.579Z,101293.53
2018-07-23T04:14:28.695Z,101293.84
2018-07-23T04:19:31.278Z,101295.14
2018-07-23T04:24:33.386Z,101307.43
2018-07-23T04:29:35.536Z,101305.83
2018-07-23T04:34:37.715Z,101305.63
2018-07-23T04:39:39.840Z,101300.17
2018-07-23T04:44:41.974Z,101304.50
2018-07-23T04:49:44.106Z,101302.80
2018-07-23T04:54:46.280Z,101300.90
2018-07-23T04:59:48.434Z,101306.74
2018-07-23T05:04:50.565Z,101310.63
2018-07-23T05:09:52.699Z,101305.83
2018-07-23T05:14:54.885Z,101302.81
2018-07-23T05:19:56.993Z,101305.98
2018-07-23T05:24:59.159Z,101303.52
2018-07-23T05:30:01.279Z,101299.80
2018-07-23T05:35:03.775Z,101313.70
2018-07-23T05:40:06.351Z,101304.55
2018-07-23T05:45:08.657Z,101302.65
2018-07-23T05:50:10.819Z,101305.80
2018-07-23T05:55:12.981Z,101267.25
2018-07-23T06:00:15.185Z,101310.55
2018-07-23T06:05:17.352Z,101317.02
2018-07-23T06:10:19.521Z,101311.52
2018-07-23T06:15:21.670Z,101317.10
2018-07-23T06:20:23.875Z,101317.12
2018-07-23T06:25:26.096Z,101317.20
2018-07-23T06:30:28.316Z,101324.98
2018-07-23T06:35:30.468Z,101325.91
2018-07-23T06:40:32.641Z,101327.99
2018-07-23T06:45:34.787Z,101335.32
2018-07-23T06:50:36.982Z,101338.79
2018-07-23T06:55:39.182Z,101337.08
2018-07-23T07:00:41.390Z,101337.09
2018-07-23T07:05:43.527Z,101334.92
2018-07-23T07:10:45.669Z,101338.37
2018-07-23T07:15:47.809Z,101339.66
2018-07-23T07:20:49.949Z,101342.25
2018-07-23T07:25:52.577Z,101337.55
2018-07-23T07:30:54.716Z,101342.28
2018-07-23T07:35:56.911Z,101343.97
2018-07-23T07:40:59.084Z,101340.08
2018-07-23T07:46:01.242Z,101343.95
2018-07-23T07:51:03.428Z,101341.38
2018-07-23T07:56:05.807Z,101335.33
2018-07-23T08:01:08.027Z,101343.41
2018-07-23T08:06:11.006Z,101344.92
2018-07-23T08:11:13.207Z,101345.45
2018-07-23T08:16:15.411Z,101332.78
2018-07-23T08:21:17.511Z,101339.20
2018-07-23T08:26:19.682Z,101336.98
2018-07-23T08:31:21.856Z,101339.83
2018-07-23T08:36:24.017Z,101333.94
2018-07-23T08:41:26.196Z,101340.79
2018-07-23T08:46:28.391Z,101342.31
2018-07-23T08:51:30.578Z,101346.09
2018-07-23T08:56:32.764Z,101345.11
2018-07-23T09:01:35.036Z,101345.42
2018-07-23T09:06:37.171Z,101349.20
2018-07-23T09:11:39.561Z,101355.13
2018-07-23T09:16:41.710Z,101360.85
2018-07-23T09:21:43.939Z,101351.70
2018-07-23T09:26:46.101Z,101353.38
2018-07-23T09:31:48.295Z,101356.58
2018-07-23T09:36:50.435Z,101361.11
2018-07-23T09:41:52.634Z,101360.48
2018-07-23T09:46:55.046Z,101349.86
2018-07-23T09:51:57.234Z,101347.58
2018-07-23T09:56:59.395Z,101351.06
2018-07-23T10:02:01.599Z,101350.61
2018-07-23T10:07:04.063Z,101351.67
2018-07-23T10:12:06.240Z,101349.70
2018-07-23T10:17:08.458Z,101348.58
2018-07-23T10:22:10.683Z,101345.31
2018-07-23T10:27:12.846Z,101345.95
2018-07-23T10:32:15.011Z,101346.42
2018-07-23T10:37:17.188Z,101346.78
2018-07-23T10:42:19.368Z,101349.72
2018-07-23T10:47:21.728Z,101352.02
2018-07-23T10:52:23.947Z,101347.75
2018-07-23T10:57:26.130Z,101355.75
2018-07-23T11:02:28.336Z,101357.91
2018-07-23T11:07:30.775Z,101355.02
2018-07-23T11:12:33.007Z,101349.45
2018-07-23T11:17:35.819Z,101343.97
2018-07-23T11:22:37.990Z,101344.70
2018-07-23T11:27:40.161Z,101340.80
2018-07-23T11:32:42.394Z,101351.79
2018-07-23T11:37:44.550Z,101358.28
2018-07-23T11:42:46.755Z,101360.47
2018-07-23T11:47:48.964Z,101360.66
2018-07-23T11:52:51.164Z,101359.55
2018-07-23T11:57:53.383Z,101370.09
2018-07-23T12:02:55.604Z,101368.24
2018-07-23T12:07:57.787Z,101369.78
2018-07-23T12:13:00.004Z,101372.42
2018-07-23T12:18:02.207Z,101374.12
2018-07-23T12:23:04.426Z,101371.59
2018-07-23T12:28:06.612Z,101372.39
2018-07-23T12:33:08.776Z,101365.41
2018-07-23T12:38:10.961Z,101364.34
2018-07-23T12:43:13.111Z,101363.00
2018-07-23T12:48:15.267Z,101357.09
2018-07-23T12:53:17.444Z,101360.38
2018-07-23T12:58:19.601Z,101351.21
2018-07-23T13:03:21.818Z,101351.96
2018-07-23T13:08:24.025Z,101339.98
2018-07-23T13:13:26.234Z,101345.44
2018-07-23T13:18:28.441Z,101346.25
2018-07-23T13:23:30.628Z,101341.00
2018-07-23T13:28:32.832Z,101345.27
2018-07-23T13:33:35.015Z,101338.37
2018-07-23T13:38:37.207Z,101344.42
2018-07-23T13:43:39.435Z,101339.63
2018-07-23T13:48:41.611Z,101339.39
2018-07-23T13:53:43.877Z,101333.77
2018-07-23T13:58:46.077Z,101330.84
2018-07-23T14:03:48.298Z,101322.27
2018-07-23T14:08:50.504Z,101318.80
2018-07-23T14:13:52.702Z,101317.02
2018-07-23T14:18:54.827Z,101313.51
2018-07-23T14:23:56.980Z,101322.48
2018-07-23T14:28:59.192Z,101322.45
2018-07-23T14:34:01.352Z,101307.45
2018-07-23T14:39:07.073Z,101313.38
2018-07-23T14:44:09.538Z,101310.52
2018-07-23T14:49:11.753Z,101309.02
2018-07-23T14:54:13.938Z,101306.15
2018-07-23T14:59:16.167Z,101304.17
2018-07-23T15:04:18.387Z,101304.59
2018-07-23T15:09:20.681Z,101299.47
2018-07-23T15:14:23.339Z,101296.79
2018-07-23T15:19:25.516Z,101282.08
2018-07-23T15:24:27.679Z,101288.88
2018-07-23T15:29:29.850Z,101295.44
2018-07-23T15:34:32.016Z,101293.51
2018-07-23T15:39:34.182Z,101297.70
2018-07-23T15:44:36.713Z,101296.56
2018-07-23T15:49:38.693Z,101297.73
2018-07-23T15:54:40.855Z,101287.46
2018-07-23T15:59:42.989Z,101282.14
2018-07-23T16:04:45.162Z,101280.91
2018-07-23T16:09:47.312Z,101275.33
2018-07-23T16:14:49.427Z,101279.48
2018-07-23T16:19:51.615Z,101284.45
2018-07-23T16:24:53.787Z,101279.25
2018-07-23T16:29:56.137Z,101276.66
2018-07-23T16:34:58.281Z,101277.08
2018-07-23T16:40:00.470Z,101255.57
2018-07-23T16:45:02.683Z,101274.49
2018-07-23T16:50:04.866Z,101284.06
2018-07-23T16:55:07.033Z,101285.95
2018-07-23T17:00:09.212Z,101286.22
2018-07-23T17:05:11.459Z,101288.98
2018-07-23T17:10:13.662Z,101290.45
2018-07-23T17:15:15.825Z,101292.69
2018-07-23T17:20:17.961Z,101293.16
2018-07-23T17:25:20.126Z,101295.76
2018-07-23T17:30:22.280Z,101295.23
2018-07-23T17:35:24.414Z,101294.30
2018-07-23T17:40:26.601Z,101299.30
2018-07-23T17:45:28.759Z,101292.05
2018-07-23T17:50:31.121Z,101295.08
2018-07-23T17:55:33.274Z,101294.14
2018-07-23T18:00:35.457Z,101298.14
2018-07-23T18:05:37.674Z,101293.28
2018-07-23T18:10:39.875Z,101300.27
2018-07-23T18:15:42.075Z,101300.41
2018-07-23T18:20:44.267Z,101299.91
2018-07-23T18:25:46.478Z,101302.19
2018-07-23T18:30:48.667Z,101310.22
2018-07-23T18:35:50.895Z,101305.11
2018-07-23T18:40:53.127Z,101308.09
2018-07-23T18:45:55.382Z,101318.83
2018-07-23T18:50:57.602Z,101319.66
2018-07-23T18:55:59.783Z,101319.16
2018-07-23T19:01:01.997Z,101324.30
2018-07-23T19:06:04.335Z,101327.36
2018-07-23T19:11:06.590Z,101330.99
2018-07-23T19:16:08.808Z,101335.52
2018-07-23T19:21:11.017Z,101340.55
2018-07-23T19:26:13.221Z,101347.97
2018-07-23T19:31:15.415Z,101352.95
2018-07-23T19:36:18.138Z,101358.66
2018-07-23T19:41:20.387Z,101365.32
2018-07-23T19:46:22.829Z,101370.14
2018-07-23T19:51:25.100Z,101369.78
2018-07-23T19:56:27.313Z,101368.22
2018-07-23T20:01:29.548Z,101365.77
2018-07-23T20:06:31.923Z,101359.45
2018-07-23T20:11:34.166Z,101362.34
2018-07-23T20:16:36.368Z,101358.48
2018-07-23T20:21:38.558Z,101354.14
2018-07-23T20:26:40.757Z,101356.31
2018-07-23T20:31:42.992Z,101348.62
2018-07-23T20:36:45.208Z,101355.59
2018-07-23T20:41:47.551Z,101355.23
2018-07-23T20:46:50.549Z,101361.39
2018-07-23T20:51:52.805Z,101358.86
2018-07-23T20:56:54.989Z,101355.03
2018-07-23T21:01:57.151Z,101357.08
2018-07-23T21:07:03.870Z,101359.09
2018-07-23T21:12:06.708Z,101358.81
2018-07-23T21:17:08.964Z,101349.97
2018-07-23T21:22:11.279Z,101372.69
2018-07-23T21:27:17.133Z,101376.56
2018-07-23T21:32:20.449Z,101365.86
2018-07-23T21:37:22.749Z,101370.52
2018-07-23T21:42:24.955Z,101372.00
2018-07-23T21:47:27.300Z,101381.06
2018-07-23T21:52:30.343Z,101380.23
2018-07-23T21:57:33.865Z,101385.39
2018-07-23T22:02:37.477Z,101382.04
2018-07-23T22:07:41.169Z,101385.03
2018-07-23T22:12:44.436Z,101383.38
2018-07-23T22:17:47.799Z,101388.17
2018-07-23T22:22:51.613Z,101395.87
2018-07-23T22:27:54.850Z,101395.93
2018-07-23T22:32:58.756Z,101389.50
2018-07-23T22:38:01.043Z,101389.58
2018-07-23T22:43:03.217Z,101384.03
2018-07-23T22:48:05.399Z,101390.06
2018-07-23T22:53:07.667Z,101378.55
2018-07-23T22:58:09.803Z,101375.52
2018-07-23T23:03:12.039Z,101373.86
2018-07-23T23:08:14.228Z,101380.28
2018-07-23T23:13:16.597Z,101378.22
2018-07-23T23:18:18.803Z,101370.86
2018-07-23T23:23:20.949Z,101373.51
2018-07-23T23:28:23.092Z,101373.94
2018-07-23T23:33:25.337Z,101379.98
2018-07-23T23:38:27.489Z,101374.89
2018-07-23T23:43:29.825Z,101368.42
2018-07-23T23:48:32.316Z,101367.17
2018-07-23T23:53:34.483Z,101374.47
2018-07-23T23:58:38.528Z,101372.35
